sensor_id;sensor_type;location;lat;lon;timestamp;temperature;humidity
15997;DHT22;8103;51.340;12.326;2022-11-04T00:01:16;10.00;99.90
15997;DHT22;8103;51.340;12.326;2022-11-04T00:03:43;10.00;99.90
15997;DHT22;8103;51.340;12.326;2022-11-04T00:06:11;10.10;99.90
15997;DHT22;8103;51.340;12.326;2022-11-04T00:08:38;10.10;99.90
15997;DHT22;8103;51.340;12.326;2022-11-04T00:11:05;10.10;99.90
15997;DHT22;8103;51.340;12.326;2022-11-04T00:13:50;10.10;99.90
15997;DHT22;8103;51.340;12.326;2022-11-04T00:16:17;10.10;99.90
15997;DHT22;8103;51.340;12.326;2022-11-04T00:19:03;10.10;99.90
15997;DHT22;8103;51.340;12.326;2022-11-04T00:21:30;10.10;99.90
15997;DHT22;8103;51.340;12.326;2022-11-04T00:24:15;10.10;99.90
15997;DHT22;8103;51.340;12.326;2022-11-04T00:27:00;10.10;99.90
15997;DHT22;8103;51.340;12.326;2022-11-04T00:29:46;10.10;99.90
15997;DHT22;8103;51.340;12.326;2022-11-04T00:32:13;10.10;99.90
15997;DHT22;8103;51.340;12.326;2022-11-04T00:34:59;10.10;99.90
15997;DHT22;8103;51.340;12.326;2022-11-04T00:37:26;10.10;99.90
15997;DHT22;8103;51.340;12.326;2022-11-04T00:39:53;10.20;99.90
15997;DHT22;8103;51.340;12.326;2022-11-04T00:42:20;10.20;99.90
15997;DHT22;8103;51.340;12.326;2022-11-04T00:44:48;10.30;99.90
15997;DHT22;8103;51.340;12.326;2022-11-04T00:47:15;10.30;99.90
15997;DHT22;8103;51.340;12.326;2022-11-04T00:49:42;10.40;99.90
15997;DHT22;8103;51.340;12.326;2022-11-04T00:52:09;10.50;99.90
15997;DHT22;8103;51.340;12.326;2022-11-04T00:54:36;10.60;99.90
15997;DHT22;8103;51.340;12.326;2022-11-04T00:57:03;10.60;99.90
15997;DHT22;8103;51.340;12.326;2022-11-04T00:59:30;10.70;99.90
15997;DHT22;8103;51.340;12.326;2022-11-04T01:01:58;10.70;99.90
15997;DHT22;8103;51.340;12.326;2022-11-04T01:04:25;10.70;99.90
15997;DHT22;8103;51.340;12.326;2022-11-04T01:06:52;10.70;99.90
15997;DHT22;8103;51.340;12.326;2022-11-04T01:09:19;10.70;99.90
15997;DHT22;8103;51.340;12.326;2022-11-04T01:11:47;10.70;99.90
15997;DHT22;8103;51.340;12.326;2022-11-04T01:14:14;10.70;99.90
15997;DHT22;8103;51.340;12.326;2022-11-04T01:16:42;10.70;99.90
15997;DHT22;8103;51.340;12.326;2022-11-04T01:19:09;10.70;99.90
15997;DHT22;8103;51.340;12.326;2022-11-04T01:21:37;10.70;99.90
15997;DHT22;8103;51.340;12.326;2022-11-04T01:24:05;10.70;99.90
15997;DHT22;8103;51.340;12.326;2022-11-04T01:26:32;10.70;99.90
15997;DHT22;8103;51.340;12.326;2022-11-04T01:29:00;10.70;99.90
15997;DHT22;8103;51.340;12.326;2022-11-04T01:31:28;10.70;99.90
15997;DHT22;8103;51.340;12.326;2022-11-04T01:33:57;10.70;99.90
15997;DHT22;8103;51.340;12.326;2022-11-04T01:36:26;10.70;99.90
15997;DHT22;8103;51.340;12.326;2022-11-04T01:38:54;10.70;99.90
15997;DHT22;8103;51.340;12.326;2022-11-04T01:41:28;10.70;99.90
15997;DHT22;8103;51.340;12.326;2022-11-04T01:47:03;10.80;99.90
15997;DHT22;8103;51.340;12.326;2022-11-04T01:49:35;10.80;99.90
15997;DHT22;8103;51.340;12.326;2022-11-04T01:52:24;10.80;99.90
15997;DHT22;8103;51.340;12.326;2022-11-04T01:54:59;10.80;99.90
15997;DHT22;8103;51.340;12.326;2022-11-04T01:57:34;10.80;99.90
15997;DHT22;8103;51.340;12.326;2022-11-04T02:00:07;10.90;99.90
15997;DHT22;8103;51.340;12.326;2022-11-04T02:03:03;10.90;99.90
15997;DHT22;8103;51.340;12.326;2022-11-04T02:05:34;10.90;99.90
15997;DHT22;8103;51.340;12.326;2022-11-04T02:08:03;10.80;99.90
15997;DHT22;8103;51.340;12.326;2022-11-04T02:10:32;10.80;99.90
15997;DHT22;8103;51.340;12.326;2022-11-04T02:13:02;10.80;99.90
15997;DHT22;8103;51.340;12.326;2022-11-04T02:24:23;10.80;99.90
15997;DHT22;8103;51.340;12.326;2022-11-04T02:27:25;10.80;99.90
15997;DHT22;8103;51.340;12.326;2022-11-04T02:30:13;10.80;99.90
15997;DHT22;8103;51.340;12.326;2022-11-04T02:32:58;10.80;99.90
15997;DHT22;8103;51.340;12.326;2022-11-04T02:38:36;10.80;99.90
15997;DHT22;8103;51.340;12.326;2022-11-04T02:41:51;10.80;99.90
15997;DHT22;8103;51.340;12.326;2022-11-04T02:44:43;10.80;99.90
15997;DHT22;8103;51.340;12.326;2022-11-04T02:47:21;10.80;99.90
15997;DHT22;8103;51.340;12.326;2022-11-04T02:52:38;10.80;99.90
15997;DHT22;8103;51.340;12.326;2022-11-04T02:55:37;10.80;99.90
15997;DHT22;8103;51.340;12.326;2022-11-04T02:58:13;10.80;99.90
15997;DHT22;8103;51.340;12.326;2022-11-04T03:00:47;10.80;99.90
15997;DHT22;8103;51.340;12.326;2022-11-04T03:03:21;10.80;99.90
15997;DHT22;8103;51.340;12.326;2022-11-04T03:05:54;10.80;99.90
15997;DHT22;8103;51.340;12.326;2022-11-04T03:08:29;10.80;99.90
15997;DHT22;8103;51.340;12.326;2022-11-04T03:11:18;10.80;99.90
15997;DHT22;8103;51.340;12.326;2022-11-04T03:13:58;10.70;99.90
15997;DHT22;8103;51.340;12.326;2022-11-04T03:16:43;10.70;99.90
15997;DHT22;8103;51.340;12.326;2022-11-04T03:19:39;10.60;99.90
15997;DHT22;8103;51.340;12.326;2022-11-04T03:22:18;10.60;99.90
15997;DHT22;8103;51.340;12.326;2022-11-04T03:24:48;10.60;99.90
15997;DHT22;8103;51.340;12.326;2022-11-04T03:27:47;10.60;99.90
15997;DHT22;8103;51.340;12.326;2022-11-04T03:30:21;10.60;99.90
15997;DHT22;8103;51.340;12.326;2022-11-04T03:35:43;10.70;99.90
15997;DHT22;8103;51.340;12.326;2022-11-04T03:38:10;10.70;99.90
15997;DHT22;8103;51.340;12.326;2022-11-04T03:40:37;10.70;99.90
15997;DHT22;8103;51.340;12.326;2022-11-04T03:43:08;10.80;99.90
15997;DHT22;8103;51.340;12.326;2022-11-04T03:45:39;10.80;99.90
15997;DHT22;8103;51.340;12.326;2022-11-04T03:48:09;10.80;99.90
15997;DHT22;8103;51.340;12.326;2022-11-04T03:50:44;10.80;99.90
15997;DHT22;8103;51.340;12.326;2022-11-04T03:53:19;10.80;99.90
15997;DHT22;8103;51.340;12.326;2022-11-04T03:58:49;10.80;99.90
15997;DHT22;8103;51.340;12.326;2022-11-04T04:01:50;10.90;99.90
15997;DHT22;8103;51.340;12.326;2022-11-04T04:04:44;10.90;99.90
15997;DHT22;8103;51.340;12.326;2022-11-04T04:07:35;10.90;99.90
15997;DHT22;8103;51.340;12.326;2022-11-04T04:16:31;10.90;99.90
15997;DHT22;8103;51.340;12.326;2022-11-04T04:19:18;10.90;99.90
15997;DHT22;8103;51.340;12.326;2022-11-04T04:22:14;10.90;99.90
15997;DHT22;8103;51.340;12.326;2022-11-04T04:24:57;10.90;99.90
15997;DHT22;8103;51.340;12.326;2022-11-04T04:27:46;10.90;99.90
15997;DHT22;8103;51.340;12.326;2022-11-04T04:30:16;10.90;99.90
15997;DHT22;8103;51.340;12.326;2022-11-04T04:32:46;10.90;99.90
15997;DHT22;8103;51.340;12.326;2022-11-04T04:35:24;10.90;99.90
15997;DHT22;8103;51.340;12.326;2022-11-04T04:38:27;10.90;99.90
15997;DHT22;8103;51.340;12.326;2022-11-04T04:41:25;10.90;99.90
15997;DHT22;8103;51.340;12.326;2022-11-04T04:44:33;10.90;99.90
15997;DHT22;8103;51.340;12.326;2022-11-04T04:47:22;11.00;99.90
15997;DHT22;8103;51.340;12.326;2022-11-04T04:49:53;11.00;99.90
15997;DHT22;8103;51.340;12.326;2022-11-04T04:52:23;11.00;99.90
15997;DHT22;8103;51.340;12.326;2022-11-04T04:54:52;11.10;99.90
15997;DHT22;8103;51.340;12.326;2022-11-04T04:57:19;11.10;99.90
15997;DHT22;8103;51.340;12.326;2022-11-04T04:59:46;11.00;99.90
15997;DHT22;8103;51.340;12.326;2022-11-04T05:02:13;11.10;99.90
15997;DHT22;8103;51.340;12.326;2022-11-04T05:04:40;11.10;99.90
15997;DHT22;8103;51.340;12.326;2022-11-04T05:07:07;11.10;99.90
15997;DHT22;8103;51.340;12.326;2022-11-04T05:09:35;11.10;99.90
15997;DHT22;8103;51.340;12.326;2022-11-04T05:12:02;11.10;99.90
15997;DHT22;8103;51.340;12.326;2022-11-04T05:14:29;11.10;99.90
15997;DHT22;8103;51.340;12.326;2022-11-04T05:16:56;11.10;99.90
15997;DHT22;8103;51.340;12.326;2022-11-04T05:19:23;11.10;99.90
15997;DHT22;8103;51.340;12.326;2022-11-04T05:21:50;11.10;99.90
15997;DHT22;8103;51.340;12.326;2022-11-04T05:24:17;11.10;99.90
15997;DHT22;8103;51.340;12.326;2022-11-04T05:26:44;11.20;99.90
15997;DHT22;8103;51.340;12.326;2022-11-04T05:29:11;11.10;99.90
15997;DHT22;8103;51.340;12.326;2022-11-04T05:31:43;11.10;99.90
15997;DHT22;8103;51.340;12.326;2022-11-04T05:34:10;11.20;99.90
15997;DHT22;8103;51.340;12.326;2022-11-04T05:36:38;11.10;99.90
15997;DHT22;8103;51.340;12.326;2022-11-04T05:39:05;11.20;99.90
15997;DHT22;8103;51.340;12.326;2022-11-04T05:41:33;11.10;99.90
15997;DHT22;8103;51.340;12.326;2022-11-04T05:44:02;11.20;99.90
15997;DHT22;8103;51.340;12.326;2022-11-04T05:46:30;11.20;99.90
15997;DHT22;8103;51.340;12.326;2022-11-04T05:48:57;11.20;99.90
15997;DHT22;8103;51.340;12.326;2022-11-04T05:51:26;11.10;99.90
15997;DHT22;8103;51.340;12.326;2022-11-04T05:53:54;11.10;99.90
15997;DHT22;8103;51.340;12.326;2022-11-04T05:56:21;11.10;99.90
15997;DHT22;8103;51.340;12.326;2022-11-04T05:58:48;11.10;99.90
15997;DHT22;8103;51.340;12.326;2022-11-04T06:01:26;11.10;99.90
15997;DHT22;8103;51.340;12.326;2022-11-04T06:03:59;11.10;99.90
15997;DHT22;8103;51.340;12.326;2022-11-04T06:06:30;11.10;99.90
15997;DHT22;8103;51.340;12.326;2022-11-04T06:08:59;11.00;99.90
15997;DHT22;8103;51.340;12.326;2022-11-04T06:11:28;11.00;99.90
15997;DHT22;8103;51.340;12.326;2022-11-04T06:13:56;11.10;99.90
15997;DHT22;8103;51.340;12.326;2022-11-04T06:16:24;11.00;99.90
15997;DHT22;8103;51.340;12.326;2022-11-04T06:18:52;11.10;99.90
15997;DHT22;8103;51.340;12.326;2022-11-04T06:21:29;11.00;99.90
15997;DHT22;8103;51.340;12.326;2022-11-04T06:23:58;11.00;99.90
15997;DHT22;8103;51.340;12.326;2022-11-04T06:26:27;11.00;99.90
15997;DHT22;8103;51.340;12.326;2022-11-04T06:28:57;11.00;99.90
15997;DHT22;8103;51.340;12.326;2022-11-04T06:31:24;11.10;99.90
15997;DHT22;8103;51.340;12.326;2022-11-04T06:33:51;11.10;99.90
15997;DHT22;8103;51.340;12.326;2022-11-04T06:36:18;11.10;99.90
15997;DHT22;8103;51.340;12.326;2022-11-04T06:38:45;11.10;99.90
15997;DHT22;8103;51.340;12.326;2022-11-04T06:41:15;11.10;99.90
15997;DHT22;8103;51.340;12.326;2022-11-04T06:43:43;11.10;99.90
15997;DHT22;8103;51.340;12.326;2022-11-04T06:46:33;11.20;99.90
15997;DHT22;8103;51.340;12.326;2022-11-04T06:49:04;11.20;99.90
15997;DHT22;8103;51.340;12.326;2022-11-04T06:51:32;11.20;99.90
15997;DHT22;8103;51.340;12.326;2022-11-04T06:53:59;11.30;99.90
15997;DHT22;8103;51.340;12.326;2022-11-04T06:56:26;11.30;99.90
15997;DHT22;8103;51.340;12.326;2022-11-04T06:58:54;11.30;99.90
15997;DHT22;8103;51.340;12.326;2022-11-04T07:01:24;11.30;99.90
15997;DHT22;8103;51.340;12.326;2022-11-04T07:03:57;11.30;99.90
15997;DHT22;8103;51.340;12.326;2022-11-04T07:06:26;11.30;99.90
15997;DHT22;8103;51.340;12.326;2022-11-04T07:08:57;11.30;99.90
15997;DHT22;8103;51.340;12.326;2022-11-04T07:11:27;11.30;99.90
15997;DHT22;8103;51.340;12.326;2022-11-04T07:13:56;11.30;99.90
15997;DHT22;8103;51.340;12.326;2022-11-04T07:16:23;11.30;99.90
15997;DHT22;8103;51.340;12.326;2022-11-04T07:18:50;11.30;99.90
15997;DHT22;8103;51.340;12.326;2022-11-04T07:21:17;11.30;99.90
15997;DHT22;8103;51.340;12.326;2022-11-04T07:23:44;11.30;99.90
15997;DHT22;8103;51.340;12.326;2022-11-04T07:26:12;11.30;99.90
15997;DHT22;8103;51.340;12.326;2022-11-04T07:28:39;11.30;99.90
15997;DHT22;8103;51.340;12.326;2022-11-04T07:31:07;11.40;99.90
15997;DHT22;8103;51.340;12.326;2022-11-04T07:33:36;11.40;99.90
15997;DHT22;8103;51.340;12.326;2022-11-04T07:36:04;11.30;99.90
15997;DHT22;8103;51.340;12.326;2022-11-04T07:38:32;11.40;99.90
15997;DHT22;8103;51.340;12.326;2022-11-04T07:41:00;11.40;99.90
15997;DHT22;8103;51.340;12.326;2022-11-04T07:43:29;11.40;99.90
15997;DHT22;8103;51.340;12.326;2022-11-04T07:46:01;11.40;99.90
15997;DHT22;8103;51.340;12.326;2022-11-04T07:48:30;11.40;99.90
15997;DHT22;8103;51.340;12.326;2022-11-04T07:50:58;11.40;99.90
15997;DHT22;8103;51.340;12.326;2022-11-04T07:53:28;11.40;99.90
15997;DHT22;8103;51.340;12.326;2022-11-04T07:55:56;11.40;99.90
15997;DHT22;8103;51.340;12.326;2022-11-04T07:58:24;11.40;99.90
15997;DHT22;8103;51.340;12.326;2022-11-04T08:01:00;11.50;99.90
15997;DHT22;8103;51.340;12.326;2022-11-04T08:03:29;11.50;99.90
15997;DHT22;8103;51.340;12.326;2022-11-04T08:06:00;11.50;99.90
15997;DHT22;8103;51.340;12.326;2022-11-04T08:08:31;11.50;99.90
15997;DHT22;8103;51.340;12.326;2022-11-04T08:11:01;11.50;99.90
15997;DHT22;8103;51.340;12.326;2022-11-04T08:13:34;11.50;99.90
15997;DHT22;8103;51.340;12.326;2022-11-04T08:16:10;11.80;99.90
15997;DHT22;8103;51.340;12.326;2022-11-04T08:18:42;12.00;99.90
15997;DHT22;8103;51.340;12.326;2022-11-04T08:21:10;12.10;99.90
15997;DHT22;8103;51.340;12.326;2022-11-04T08:23:37;12.20;99.90
15997;DHT22;8103;51.340;12.326;2022-11-04T08:26:14;12.20;99.90
15997;DHT22;8103;51.340;12.326;2022-11-04T08:28:43;12.30;99.90
15997;DHT22;8103;51.340;12.326;2022-11-04T08:31:14;12.30;99.90
15997;DHT22;8103;51.340;12.326;2022-11-04T08:33:46;12.30;99.90
15997;DHT22;8103;51.340;12.326;2022-11-04T08:36:18;12.40;99.90
15997;DHT22;8103;51.340;12.326;2022-11-04T08:38:47;12.40;99.90
15997;DHT22;8103;51.340;12.326;2022-11-04T08:41:17;12.40;99.90
15997;DHT22;8103;51.340;12.326;2022-11-04T08:43:46;12.40;99.90
15997;DHT22;8103;51.340;12.326;2022-11-04T08:46:14;12.40;99.90
15997;DHT22;8103;51.340;12.326;2022-11-04T08:48:42;12.40;99.90
15997;DHT22;8103;51.340;12.326;2022-11-04T08:51:16;12.40;99.90
15997;DHT22;8103;51.340;12.326;2022-11-04T08:53:45;12.40;99.90
15997;DHT22;8103;51.340;12.326;2022-11-04T08:56:15;12.40;99.90
15997;DHT22;8103;51.340;12.326;2022-11-04T08:58:51;12.40;99.90
15997;DHT22;8103;51.340;12.326;2022-11-04T09:01:20;12.50;99.90
15997;DHT22;8103;51.340;12.326;2022-11-04T09:03:48;12.60;99.90
15997;DHT22;8103;51.340;12.326;2022-11-04T09:06:19;12.70;99.90
15997;DHT22;8103;51.340;12.326;2022-11-04T09:08:58;12.70;99.90
15997;DHT22;8103;51.340;12.326;2022-11-04T09:11:32;12.90;99.90
15997;DHT22;8103;51.340;12.326;2022-11-04T09:14:02;13.00;99.90
15997;DHT22;8103;51.340;12.326;2022-11-04T09:16:31;13.10;99.90
15997;DHT22;8103;51.340;12.326;2022-11-04T09:19:02;13.10;99.90
15997;DHT22;8103;51.340;12.326;2022-11-04T09:21:29;13.10;99.90
15997;DHT22;8103;51.340;12.326;2022-11-04T09:23:56;13.10;99.90
15997;DHT22;8103;51.340;12.326;2022-11-04T09:26:25;13.20;99.90
15997;DHT22;8103;51.340;12.326;2022-11-04T09:28:56;13.10;99.90
15997;DHT22;8103;51.340;12.326;2022-11-04T09:31:25;13.00;99.90
15997;DHT22;8103;51.340;12.326;2022-11-04T09:33:54;13.00;99.90
15997;DHT22;8103;51.340;12.326;2022-11-04T09:36:21;12.90;99.90
15997;DHT22;8103;51.340;12.326;2022-11-04T09:38:49;12.80;99.90
15997;DHT22;8103;51.340;12.326;2022-11-04T09:44:28;12.60;99.90
15997;DHT22;8103;51.340;12.326;2022-11-04T09:47:31;12.50;99.90
15997;DHT22;8103;51.340;12.326;2022-11-04T09:50:07;12.40;99.90
15997;DHT22;8103;51.340;12.326;2022-11-04T09:52:45;12.30;99.90
15997;DHT22;8103;51.340;12.326;2022-11-04T09:55:23;12.20;99.90
15997;DHT22;8103;51.340;12.326;2022-11-04T09:57:57;12.10;99.90
15997;DHT22;8103;51.340;12.326;2022-11-04T10:00:25;12.10;99.90
15997;DHT22;8103;51.340;12.326;2022-11-04T10:03:22;12.00;99.90
15997;DHT22;8103;51.340;12.326;2022-11-04T10:09:39;11.90;99.90
15997;DHT22;8103;51.340;12.326;2022-11-04T10:15:29;11.90;99.90
15997;DHT22;8103;51.340;12.326;2022-11-04T10:18:44;11.90;99.90
15997;DHT22;8103;51.340;12.326;2022-11-04T10:27:38;11.80;99.90
15997;DHT22;8103;51.340;12.326;2022-11-04T10:30:13;11.70;99.90
15997;DHT22;8103;51.340;12.326;2022-11-04T10:33:02;11.70;99.90
15997;DHT22;8103;51.340;12.326;2022-11-04T10:35:57;11.70;99.90
15997;DHT22;8103;51.340;12.326;2022-11-04T10:38:43;11.70;99.90
15997;DHT22;8103;51.340;12.326;2022-11-04T10:41:33;11.60;99.90
15997;DHT22;8103;51.340;12.326;2022-11-04T10:44:15;11.60;99.90
15997;DHT22;8103;51.340;12.326;2022-11-04T10:47:19;11.60;99.90
15997;DHT22;8103;51.340;12.326;2022-11-04T10:50:16;11.60;99.90
15997;DHT22;8103;51.340;12.326;2022-11-04T10:53:12;11.60;99.90
15997;DHT22;8103;51.340;12.326;2022-11-04T10:58:46;11.60;99.90
15997;DHT22;8103;51.340;12.326;2022-11-04T11:01:31;11.50;99.90
15997;DHT22;8103;51.340;12.326;2022-11-04T11:04:05;11.50;99.90
15997;DHT22;8103;51.340;12.326;2022-11-04T11:06:34;11.50;99.90
15997;DHT22;8103;51.340;12.326;2022-11-04T11:09:19;11.50;99.90
15997;DHT22;8103;51.340;12.326;2022-11-04T11:11:57;11.50;99.90
15997;DHT22;8103;51.340;12.326;2022-11-04T11:16:55;11.60;99.90
15997;DHT22;8103;51.340;12.326;2022-11-04T11:19:24;11.50;99.90
15997;DHT22;8103;51.340;12.326;2022-11-04T11:21:54;11.50;99.90
15997;DHT22;8103;51.340;12.326;2022-11-04T11:24:24;11.50;99.90
15997;DHT22;8103;51.340;12.326;2022-11-04T11:27:01;11.50;99.90
15997;DHT22;8103;51.340;12.326;2022-11-04T11:29:39;11.50;99.90
15997;DHT22;8103;51.340;12.326;2022-11-04T11:32:29;11.50;99.90
15997;DHT22;8103;51.340;12.326;2022-11-04T11:35:01;11.60;99.90
15997;DHT22;8103;51.340;12.326;2022-11-04T11:37:33;11.60;99.90
15997;DHT22;8103;51.340;12.326;2022-11-04T11:40:00;11.60;99.90
15997;DHT22;8103;51.340;12.326;2022-11-04T11:42:27;11.60;99.90
15997;DHT22;8103;51.340;12.326;2022-11-04T11:44:57;11.60;99.90
15997;DHT22;8103;51.340;12.326;2022-11-04T11:50:17;11.60;99.90
15997;DHT22;8103;51.340;12.326;2022-11-04T11:52:47;11.50;99.90
15997;DHT22;8103;51.340;12.326;2022-11-04T11:55:27;11.40;99.90
15997;DHT22;8103;51.340;12.326;2022-11-04T12:01:42;11.40;99.90
15997;DHT22;8103;51.340;12.326;2022-11-04T12:04:18;11.40;99.90
15997;DHT22;8103;51.340;12.326;2022-11-04T12:10:20;11.40;99.90
15997;DHT22;8103;51.340;12.326;2022-11-04T12:13:45;11.50;99.90
15997;DHT22;8103;51.340;12.326;2022-11-04T12:16:33;11.50;99.90
15997;DHT22;8103;51.340;12.326;2022-11-04T12:22:34;11.60;99.90
15997;DHT22;8103;51.340;12.326;2022-11-04T12:35:15;11.90;99.90
15997;DHT22;8103;51.340;12.326;2022-11-04T12:40:57;12.00;99.90
15997;DHT22;8103;51.340;12.326;2022-11-04T12:44:28;12.00;99.90
15997;DHT22;8103;51.340;12.326;2022-11-04T12:47:07;12.10;99.90
15997;DHT22;8103;51.340;12.326;2022-11-04T13:02:23;12.00;99.90
15997;DHT22;8103;51.340;12.326;2022-11-04T13:10:53;12.40;99.90
15997;DHT22;8103;51.340;12.326;2022-11-04T13:13:30;12.50;99.90
15997;DHT22;8103;51.340;12.326;2022-11-04T13:16:05;12.60;99.90
15997;DHT22;8103;51.340;12.326;2022-11-04T13:18:40;12.70;99.90
15997;DHT22;8103;51.340;12.326;2022-11-04T13:21:15;12.70;99.90
15997;DHT22;8103;51.340;12.326;2022-11-04T13:24:03;12.70;99.90
15997;DHT22;8103;51.340;12.326;2022-11-04T13:26:39;12.70;99.90
15997;DHT22;8103;51.340;12.326;2022-11-04T13:29:06;12.60;99.90
15997;DHT22;8103;51.340;12.326;2022-11-04T13:34:50;12.40;99.90
15997;DHT22;8103;51.340;12.326;2022-11-04T13:37:43;12.30;99.90
15997;DHT22;8103;51.340;12.326;2022-11-04T13:40:35;12.30;99.90
15997;DHT22;8103;51.340;12.326;2022-11-04T13:43:26;12.20;99.90
15997;DHT22;8103;51.340;12.326;2022-11-04T13:48:49;12.20;99.90
15997;DHT22;8103;51.340;12.326;2022-11-04T13:51:34;12.20;99.90
15997;DHT22;8103;51.340;12.326;2022-11-04T13:54:31;12.20;99.90
15997;DHT22;8103;51.340;12.326;2022-11-04T13:57:20;12.20;99.90
15997;DHT22;8103;51.340;12.326;2022-11-04T14:02:49;12.20;99.90
15997;DHT22;8103;51.340;12.326;2022-11-04T14:10:45;12.20;99.90
15997;DHT22;8103;51.340;12.326;2022-11-04T14:16:11;12.10;99.90
15997;DHT22;8103;51.340;12.326;2022-11-04T14:19:56;12.20;99.90
15997;DHT22;8103;51.340;12.326;2022-11-04T14:25:36;12.10;99.90
15997;DHT22;8103;51.340;12.326;2022-11-04T14:36:37;12.00;99.90
15997;DHT22;8103;51.340;12.326;2022-11-04T14:39:20;12.00;99.90
15997;DHT22;8103;51.340;12.326;2022-11-04T14:41:58;12.00;99.90
15997;DHT22;8103;51.340;12.326;2022-11-04T14:57:49;11.70;99.90
15997;DHT22;8103;51.340;12.326;2022-11-04T15:03:26;11.60;99.90
15997;DHT22;8103;51.340;12.326;2022-11-04T15:06:26;11.60;99.90
15997;DHT22;8103;51.340;12.326;2022-11-04T15:09:27;11.50;99.90
15997;DHT22;8103;51.340;12.326;2022-11-04T15:12:12;11.50;99.90
15997;DHT22;8103;51.340;12.326;2022-11-04T15:18:13;11.40;99.90
15997;DHT22;8103;51.340;12.326;2022-11-04T15:20:52;11.40;99.90
15997;DHT22;8103;51.340;12.326;2022-11-04T15:23:30;11.40;99.90
15997;DHT22;8103;51.340;12.326;2022-11-04T15:26:02;11.30;99.90
15997;DHT22;8103;51.340;12.326;2022-11-04T15:28:34;11.30;99.90
15997;DHT22;8103;51.340;12.326;2022-11-04T15:33:52;11.30;99.90
15997;DHT22;8103;51.340;12.326;2022-11-04T15:36:34;11.30;99.90
15997;DHT22;8103;51.340;12.326;2022-11-04T15:39:17;11.20;99.90
15997;DHT22;8103;51.340;12.326;2022-11-04T15:41:49;11.20;99.90
15997;DHT22;8103;51.340;12.326;2022-11-04T15:44:46;11.20;99.90
15997;DHT22;8103;51.340;12.326;2022-11-04T15:49:49;11.10;99.90
15997;DHT22;8103;51.340;12.326;2022-11-04T15:52:23;11.10;99.90
15997;DHT22;8103;51.340;12.326;2022-11-04T15:54:58;11.10;99.90
15997;DHT22;8103;51.340;12.326;2022-11-04T15:57:33;11.10;99.90
15997;DHT22;8103;51.340;12.326;2022-11-04T16:02:56;11.10;99.90
15997;DHT22;8103;51.340;12.326;2022-11-04T16:05:30;11.00;99.90
15997;DHT22;8103;51.340;12.326;2022-11-04T16:08:19;11.00;99.90
15997;DHT22;8103;51.340;12.326;2022-11-04T16:10:48;11.00;99.90
15997;DHT22;8103;51.340;12.326;2022-11-04T16:13:19;11.00;99.90
15997;DHT22;8103;51.340;12.326;2022-11-04T16:21:12;11.00;99.90
15997;DHT22;8103;51.340;12.326;2022-11-04T16:23:50;10.90;99.90
15997;DHT22;8103;51.340;12.326;2022-11-04T16:26:35;10.90;99.90
15997;DHT22;8103;51.340;12.326;2022-11-04T16:29:07;10.90;99.90
15997;DHT22;8103;51.340;12.326;2022-11-04T16:31:39;10.90;99.90
15997;DHT22;8103;51.340;12.326;2022-11-04T16:34:12;10.80;99.90
15997;DHT22;8103;51.340;12.326;2022-11-04T16:36:40;10.80;99.90
15997;DHT22;8103;51.340;12.326;2022-11-04T16:39:07;10.80;99.90
15997;DHT22;8103;51.340;12.326;2022-11-04T16:41:36;10.80;99.90
15997;DHT22;8103;51.340;12.326;2022-11-04T16:44:16;10.80;99.90
15997;DHT22;8103;51.340;12.326;2022-11-04T16:46:46;10.80;99.90
15997;DHT22;8103;51.340;12.326;2022-11-04T16:49:18;10.80;99.90
15997;DHT22;8103;51.340;12.326;2022-11-04T16:51:53;10.80;99.90
15997;DHT22;8103;51.340;12.326;2022-11-04T16:54:22;10.80;99.90
15997;DHT22;8103;51.340;12.326;2022-11-04T16:56:50;10.80;99.90
15997;DHT22;8103;51.340;12.326;2022-11-04T16:59:17;10.80;99.90
15997;DHT22;8103;51.340;12.326;2022-11-04T17:01:44;10.80;99.90
15997;DHT22;8103;51.340;12.326;2022-11-04T17:04:11;10.80;99.90
15997;DHT22;8103;51.340;12.326;2022-11-04T17:06:38;10.80;99.90
15997;DHT22;8103;51.340;12.326;2022-11-04T17:09:20;10.70;99.90
15997;DHT22;8103;51.340;12.326;2022-11-04T17:11:48;10.70;99.90
15997;DHT22;8103;51.340;12.326;2022-11-04T17:14:17;10.70;99.90
15997;DHT22;8103;51.340;12.326;2022-11-04T17:16:44;10.70;99.90
15997;DHT22;8103;51.340;12.326;2022-11-04T17:19:14;10.70;99.90
15997;DHT22;8103;51.340;12.326;2022-11-04T17:21:43;10.70;99.90
15997;DHT22;8103;51.340;12.326;2022-11-04T17:24:12;10.70;99.90
15997;DHT22;8103;51.340;12.326;2022-11-04T17:26:41;10.70;99.90
15997;DHT22;8103;51.340;12.326;2022-11-04T17:29:08;10.70;99.90
15997;DHT22;8103;51.340;12.326;2022-11-04T17:31:41;10.70;99.90
15997;DHT22;8103;51.340;12.326;2022-11-04T17:34:08;10.70;99.90
15997;DHT22;8103;51.340;12.326;2022-11-04T17:36:35;10.70;99.90
15997;DHT22;8103;51.340;12.326;2022-11-04T17:39:03;10.70;99.90
15997;DHT22;8103;51.340;12.326;2022-11-04T17:41:30;10.70;99.90
15997;DHT22;8103;51.340;12.326;2022-11-04T17:44:16;10.70;99.90
15997;DHT22;8103;51.340;12.326;2022-11-04T17:46:43;10.70;99.90
15997;DHT22;8103;51.340;12.326;2022-11-04T17:49:16;10.70;99.90
15997;DHT22;8103;51.340;12.326;2022-11-04T17:51:48;10.70;99.90
15997;DHT22;8103;51.340;12.326;2022-11-04T17:54:20;10.70;99.90
15997;DHT22;8103;51.340;12.326;2022-11-04T17:56:48;10.70;99.90
15997;DHT22;8103;51.340;12.326;2022-11-04T17:59:16;10.70;99.90
15997;DHT22;8103;51.340;12.326;2022-11-04T18:01:43;10.70;99.90
15997;DHT22;8103;51.340;12.326;2022-11-04T18:04:17;10.70;99.90
15997;DHT22;8103;51.340;12.326;2022-11-04T18:06:47;10.70;99.90
15997;DHT22;8103;51.340;12.326;2022-11-04T18:09:17;10.70;99.90
15997;DHT22;8103;51.340;12.326;2022-11-04T18:11:45;10.70;99.90
15997;DHT22;8103;51.340;12.326;2022-11-04T18:14:31;10.70;99.90
15997;DHT22;8103;51.340;12.326;2022-11-04T18:16:58;10.60;99.90
15997;DHT22;8103;51.340;12.326;2022-11-04T18:19:26;10.60;99.90
15997;DHT22;8103;51.340;12.326;2022-11-04T18:21:54;10.60;99.90
15997;DHT22;8103;51.340;12.326;2022-11-04T18:24:21;10.50;99.90
15997;DHT22;8103;51.340;12.326;2022-11-04T18:26:49;10.50;99.90
15997;DHT22;8103;51.340;12.326;2022-11-04T18:29:17;10.50;99.90
15997;DHT22;8103;51.340;12.326;2022-11-04T18:31:45;10.50;99.90
15997;DHT22;8103;51.340;12.326;2022-11-04T18:34:16;10.50;99.90
15997;DHT22;8103;51.340;12.326;2022-11-04T18:36:46;10.50;99.90
15997;DHT22;8103;51.340;12.326;2022-11-04T18:39:15;10.50;99.90
15997;DHT22;8103;51.340;12.326;2022-11-04T18:41:44;10.50;99.90
15997;DHT22;8103;51.340;12.326;2022-11-04T18:44:17;10.40;99.90
15997;DHT22;8103;51.340;12.326;2022-11-04T18:46:47;10.40;99.90
15997;DHT22;8103;51.340;12.326;2022-11-04T18:49:16;10.40;99.90
15997;DHT22;8103;51.340;12.326;2022-11-04T18:51:45;10.40;99.90
15997;DHT22;8103;51.340;12.326;2022-11-04T18:54:13;10.40;99.90